sensor_id;sensor_type;location;lat;lon;timestamp;temperature;humidity
68746;SHT31;55731;45.456;11.064;2022-11-20T00:02:19;10.72;68.08
68746;SHT31;55731;45.456;11.064;2022-11-20T00:04:55;10.68;68.03
68746;SHT31;55731;45.456;11.064;2022-11-20T00:07:31;10.64;68.08
68746;SHT31;55731;45.456;11.064;2022-11-20T00:10:08;10.61;68.10
68746;SHT31;55731;45.456;11.064;2022-11-20T00:12:45;10.60;68.06
68746;SHT31;55731;45.456;11.064;2022-11-20T00:15:22;10.55;68.27
68746;SHT31;55731;45.456;11.064;2022-11-20T00:17:58;10.49;68.31
68746;SHT31;55731;45.456;11.064;2022-11-20T00:20:35;10.46;68.42
68746;SHT31;55731;45.456;11.064;2022-11-20T00:23:12;10.42;68.34
68746;SHT31;55731;45.456;11.064;2022-11-20T00:25:48;10.45;68.61
68746;SHT31;55731;45.456;11.064;2022-11-20T00:28:24;10.46;68.53
68746;SHT31;55731;45.456;11.064;2022-11-20T00:31:05;10.42;68.61
68746;SHT31;55731;45.456;11.064;2022-11-20T00:33:43;10.44;68.18
68746;SHT31;55731;45.456;11.064;2022-11-20T00:36:20;10.47;67.93
68746;SHT31;55731;45.456;11.064;2022-11-20T00:38:57;10.51;67.85
68746;SHT31;55731;45.456;11.064;2022-11-20T00:41:34;10.52;67.81
68746;SHT31;55731;45.456;11.064;2022-11-20T00:44:11;10.50;67.90
68746;SHT31;55731;45.456;11.064;2022-11-20T00:46:51;10.46;67.91
68746;SHT31;55731;45.456;11.064;2022-11-20T00:49:28;10.41;67.91
68746;SHT31;55731;45.456;11.064;2022-11-20T00:52:05;10.34;68.00
68746;SHT31;55731;45.456;11.064;2022-11-20T00:54:41;10.31;68.03
68746;SHT31;55731;45.456;11.064;2022-11-20T00:57:17;10.33;67.95
68746;SHT31;55731;45.456;11.064;2022-11-20T00:59:54;10.40;67.83
68746;SHT31;55731;45.456;11.064;2022-11-20T01:02:31;10.45;67.64
68746;SHT31;55731;45.456;11.064;2022-11-20T01:05:08;10.53;67.33
68746;SHT31;55731;45.456;11.064;2022-11-20T01:07:45;10.58;66.97
68746;SHT31;55731;45.456;11.064;2022-11-20T01:10:23;10.57;66.79
68746;SHT31;55731;45.456;11.064;2022-11-20T01:13:00;10.53;66.57
68746;SHT31;55731;45.456;11.064;2022-11-20T01:15:53;10.47;66.46
68746;SHT31;55731;45.456;11.064;2022-11-20T01:18:35;10.41;66.51
68746;SHT31;55731;45.456;11.064;2022-11-20T01:21:15;10.36;66.68
68746;SHT31;55731;45.456;11.064;2022-11-20T01:23:55;10.31;66.61
68746;SHT31;55731;45.456;11.064;2022-11-20T01:26:31;10.28;66.53
68746;SHT31;55731;45.456;11.064;2022-11-20T01:29:17;10.24;66.38
68746;SHT31;55731;45.456;11.064;2022-11-20T01:31:55;10.23;66.33
68746;SHT31;55731;45.456;11.064;2022-11-20T01:34:32;10.19;66.33
68746;SHT31;55731;45.456;11.064;2022-11-20T01:37:09;10.15;66.46
68746;SHT31;55731;45.456;11.064;2022-11-20T01:39:45;10.12;66.36
68746;SHT31;55731;45.456;11.064;2022-11-20T01:42:22;10.09;66.34
68746;SHT31;55731;45.456;11.064;2022-11-20T01:48:47;10.16;65.79
68746;SHT31;55731;45.456;11.064;2022-11-20T01:51:32;10.19;65.73
68746;SHT31;55731;45.456;11.064;2022-11-20T01:54:17;10.19;65.63
68746;SHT31;55731;45.456;11.064;2022-11-20T01:57:02;10.20;65.49
68746;SHT31;55731;45.456;11.064;2022-11-20T01:59:41;10.20;65.39
68746;SHT31;55731;45.456;11.064;2022-11-20T02:02:27;10.20;65.35
68746;SHT31;55731;45.456;11.064;2022-11-20T02:05:08;10.20;65.40
68746;SHT31;55731;45.456;11.064;2022-11-20T02:07:54;10.19;65.39
68746;SHT31;55731;45.456;11.064;2022-11-20T02:10:34;10.18;65.42
68746;SHT31;55731;45.456;11.064;2022-11-20T02:13:11;10.17;65.29
68746;SHT31;55731;45.456;11.064;2022-11-20T02:16:01;10.17;65.23
68746;SHT31;55731;45.456;11.064;2022-11-20T02:18:41;10.18;65.16
68746;SHT31;55731;45.456;11.064;2022-11-20T02:24:13;10.16;65.09
68746;SHT31;55731;45.456;11.064;2022-11-20T02:26:53;10.17;64.91
68746;SHT31;55731;45.456;11.064;2022-11-20T02:29:35;10.14;64.83
68746;SHT31;55731;45.456;11.064;2022-11-20T02:32:22;10.12;64.81
68746;SHT31;55731;45.456;11.064;2022-11-20T02:35:35;10.10;64.84
68746;SHT31;55731;45.456;11.064;2022-11-20T02:38:28;10.07;64.87
68746;SHT31;55731;45.456;11.064;2022-11-20T02:41:06;10.05;64.73
68746;SHT31;55731;45.456;11.064;2022-11-20T02:43:42;10.01;64.88
68746;SHT31;55731;45.456;11.064;2022-11-20T02:46:19;9.99;64.88
68746;SHT31;55731;45.456;11.064;2022-11-20T02:48:55;9.98;64.77
68746;SHT31;55731;45.456;11.064;2022-11-20T02:51:32;9.98;64.78
68746;SHT31;55731;45.456;11.064;2022-11-20T02:54:09;9.94;64.68
68746;SHT31;55731;45.456;11.064;2022-11-20T02:56:45;9.93;64.76
68746;SHT31;55731;45.456;11.064;2022-11-20T02:59:22;9.96;64.84
68746;SHT31;55731;45.456;11.064;2022-11-20T03:01:58;9.99;64.61
68746;SHT31;55731;45.456;11.064;2022-11-20T03:04:35;10.02;64.53
68746;SHT31;55731;45.456;11.064;2022-11-20T03:07:11;10.02;64.18
68746;SHT31;55731;45.456;11.064;2022-11-20T03:09:48;9.98;64.19
68746;SHT31;55731;45.456;11.064;2022-11-20T03:12:30;9.98;63.90
68746;SHT31;55731;45.456;11.064;2022-11-20T03:15:08;9.96;63.50
68746;SHT31;55731;45.456;11.064;2022-11-20T03:17:46;9.91;63.57
68746;SHT31;55731;45.456;11.064;2022-11-20T03:20:24;9.84;63.77
68746;SHT31;55731;45.456;11.064;2022-11-20T03:23:00;9.80;64.05
68746;SHT31;55731;45.456;11.064;2022-11-20T03:25:37;9.78;64.03
68746;SHT31;55731;45.456;11.064;2022-11-20T03:28:13;9.72;64.01
68746;SHT31;55731;45.456;11.064;2022-11-20T03:30:50;9.68;64.12
68746;SHT31;55731;45.456;11.064;2022-11-20T03:33:29;9.66;64.21
68746;SHT31;55731;45.456;11.064;2022-11-20T03:36:07;9.61;64.25
68746;SHT31;55731;45.456;11.064;2022-11-20T03:38:45;9.57;64.37
68746;SHT31;55731;45.456;11.064;2022-11-20T03:41:22;9.53;64.45
68746;SHT31;55731;45.456;11.064;2022-11-20T03:44:00;9.50;64.41
68746;SHT31;55731;45.456;11.064;2022-11-20T03:46:39;9.48;64.45
68746;SHT31;55731;45.456;11.064;2022-11-20T03:49:16;9.45;64.51
68746;SHT31;55731;45.456;11.064;2022-11-20T03:51:53;9.43;64.65
68746;SHT31;55731;45.456;11.064;2022-11-20T03:54:30;9.43;64.76
68746;SHT31;55731;45.456;11.064;2022-11-20T03:57:08;9.43;64.97
68746;SHT31;55731;45.456;11.064;2022-11-20T03:59:45;9.43;65.05
68746;SHT31;55731;45.456;11.064;2022-11-20T04:02:22;9.47;65.00
68746;SHT31;55731;45.456;11.064;2022-11-20T04:04:58;9.50;64.88
68746;SHT31;55731;45.456;11.064;2022-11-20T04:07:36;9.54;64.75
68746;SHT31;55731;45.456;11.064;2022-11-20T04:10:13;9.59;64.51
68746;SHT31;55731;45.456;11.064;2022-11-20T04:12:50;9.60;64.49
68746;SHT31;55731;45.456;11.064;2022-11-20T04:15:26;9.58;64.49
68746;SHT31;55731;45.456;11.064;2022-11-20T04:18:06;9.53;64.56
68746;SHT31;55731;45.456;11.064;2022-11-20T04:20:43;9.50;64.54
68746;SHT31;55731;45.456;11.064;2022-11-20T04:23:20;9.48;64.48
68746;SHT31;55731;45.456;11.064;2022-11-20T04:26:01;9.46;64.26
68746;SHT31;55731;45.456;11.064;2022-11-20T04:28:40;9.40;64.38
68746;SHT31;55731;45.456;11.064;2022-11-20T04:31:22;9.36;64.53
68746;SHT31;55731;45.456;11.064;2022-11-20T04:34:01;9.32;64.62
68746;SHT31;55731;45.456;11.064;2022-11-20T04:36:43;9.29;64.62
68746;SHT31;55731;45.456;11.064;2022-11-20T04:39:20;9.23;64.64
68746;SHT31;55731;45.456;11.064;2022-11-20T04:41:56;9.19;64.89
68746;SHT31;55731;45.456;11.064;2022-11-20T04:44:51;9.10;65.18
68746;SHT31;55731;45.456;11.064;2022-11-20T04:47:30;9.06;65.28
68746;SHT31;55731;45.456;11.064;2022-11-20T04:50:08;9.02;65.30
68746;SHT31;55731;45.456;11.064;2022-11-20T04:52:46;8.99;65.33
68746;SHT31;55731;45.456;11.064;2022-11-20T04:55:23;8.97;65.48
68746;SHT31;55731;45.456;11.064;2022-11-20T04:57:59;8.98;65.56
68746;SHT31;55731;45.456;11.064;2022-11-20T05:00:35;9.03;65.60
68746;SHT31;55731;45.456;11.064;2022-11-20T05:03:11;9.10;65.61
68746;SHT31;55731;45.456;11.064;2022-11-20T05:05:48;9.14;65.58
68746;SHT31;55731;45.456;11.064;2022-11-20T05:08:25;9.17;65.41
68746;SHT31;55731;45.456;11.064;2022-11-20T05:11:03;9.15;65.35
68746;SHT31;55731;45.456;11.064;2022-11-20T05:13:41;9.11;65.46
68746;SHT31;55731;45.456;11.064;2022-11-20T05:16:18;9.07;65.48
68746;SHT31;55731;45.456;11.064;2022-11-20T05:19:00;9.02;65.60
68746;SHT31;55731;45.456;11.064;2022-11-20T05:21:37;8.98;65.76
68746;SHT31;55731;45.456;11.064;2022-11-20T05:24:14;8.96;65.91
68746;SHT31;55731;45.456;11.064;2022-11-20T05:26:50;8.94;65.94
68746;SHT31;55731;45.456;11.064;2022-11-20T05:29:27;8.91;66.06
68746;SHT31;55731;45.456;11.064;2022-11-20T05:32:05;8.91;66.17
68746;SHT31;55731;45.456;11.064;2022-11-20T05:35:05;8.91;66.22
68746;SHT31;55731;45.456;11.064;2022-11-20T05:37:44;8.90;66.23
68746;SHT31;55731;45.456;11.064;2022-11-20T05:40:21;8.89;66.21
68746;SHT31;55731;45.456;11.064;2022-11-20T05:42:59;8.89;66.24
68746;SHT31;55731;45.456;11.064;2022-11-20T05:45:35;8.91;66.09
68746;SHT31;55731;45.456;11.064;2022-11-20T05:48:11;8.92;66.10
68746;SHT31;55731;45.456;11.064;2022-11-20T05:50:47;8.92;66.21
68746;SHT31;55731;45.456;11.064;2022-11-20T05:53:24;8.95;66.26
68746;SHT31;55731;45.456;11.064;2022-11-20T05:56:02;8.95;66.23
68746;SHT31;55731;45.456;11.064;2022-11-20T05:58:42;8.98;66.23
68746;SHT31;55731;45.456;11.064;2022-11-20T06:01:18;8.98;66.19
68746;SHT31;55731;45.456;11.064;2022-11-20T06:03:57;8.96;66.15
68746;SHT31;55731;45.456;11.064;2022-11-20T06:06:34;8.92;66.22
68746;SHT31;55731;45.456;11.064;2022-11-20T06:09:12;8.89;66.24
68746;SHT31;55731;45.456;11.064;2022-11-20T06:11:49;8.90;66.30
68746;SHT31;55731;45.456;11.064;2022-11-20T06:14:26;8.88;66.28
68746;SHT31;55731;45.456;11.064;2022-11-20T06:17:03;8.86;66.27
68746;SHT31;55731;45.456;11.064;2022-11-20T06:19:40;8.83;66.30
68746;SHT31;55731;45.456;11.064;2022-11-20T06:22:17;8.81;66.32
68746;SHT31;55731;45.456;11.064;2022-11-20T06:24:53;8.78;66.29
68746;SHT31;55731;45.456;11.064;2022-11-20T06:27:29;8.76;66.29
68746;SHT31;55731;45.456;11.064;2022-11-20T06:30:08;8.77;66.30
68746;SHT31;55731;45.456;11.064;2022-11-20T06:32:50;8.83;66.24
68746;SHT31;55731;45.456;11.064;2022-11-20T06:35:27;8.87;66.08
68746;SHT31;55731;45.456;11.064;2022-11-20T06:38:03;8.90;66.09
68746;SHT31;55731;45.456;11.064;2022-11-20T06:40:41;8.89;66.06
68746;SHT31;55731;45.456;11.064;2022-11-20T06:43:18;8.87;66.06
68746;SHT31;55731;45.456;11.064;2022-11-20T06:45:56;8.87;66.14
68746;SHT31;55731;45.456;11.064;2022-11-20T06:48:32;8.88;66.60
68746;SHT31;55731;45.456;11.064;2022-11-20T06:51:09;8.94;66.79
68746;SHT31;55731;45.456;11.064;2022-11-20T06:53:45;8.95;66.28
68746;SHT31;55731;45.456;11.064;2022-11-20T06:56:22;8.93;66.28
68746;SHT31;55731;45.456;11.064;2022-11-20T06:58:59;8.91;66.25
68746;SHT31;55731;45.456;11.064;2022-11-20T07:01:41;8.92;66.32
68746;SHT31;55731;45.456;11.064;2022-11-20T07:04:18;8.98;66.26
68746;SHT31;55731;45.456;11.064;2022-11-20T07:06:55;9.02;66.23
68746;SHT31;55731;45.456;11.064;2022-11-20T07:09:31;9.02;66.20
68746;SHT31;55731;45.456;11.064;2022-11-20T07:12:08;9.07;67.48
68746;SHT31;55731;45.456;11.064;2022-11-20T07:14:45;9.20;66.29
68746;SHT31;55731;45.456;11.064;2022-11-20T07:17:21;9.30;65.97
68746;SHT31;55731;45.456;11.064;2022-11-20T07:19:58;9.41;65.75
68746;SHT31;55731;45.456;11.064;2022-11-20T07:22:35;9.49;65.70
68746;SHT31;55731;45.456;11.064;2022-11-20T07:25:12;9.58;65.68
68746;SHT31;55731;45.456;11.064;2022-11-20T07:27:48;9.67;65.39
68746;SHT31;55731;45.456;11.064;2022-11-20T07:30:28;9.76;64.99
68746;SHT31;55731;45.456;11.064;2022-11-20T07:33:04;9.84;64.90
68746;SHT31;55731;45.456;11.064;2022-11-20T07:35:40;9.86;65.18
68746;SHT31;55731;45.456;11.064;2022-11-20T07:38:17;9.74;66.03
68746;SHT31;55731;45.456;11.064;2022-11-20T07:40:55;9.56;66.37
68746;SHT31;55731;45.456;11.064;2022-11-20T07:43:32;9.45;66.76
68746;SHT31;55731;45.456;11.064;2022-11-20T07:46:09;9.45;66.92
68746;SHT31;55731;45.456;11.064;2022-11-20T07:48:46;9.49;67.00
68746;SHT31;55731;45.456;11.064;2022-11-20T07:51:22;9.56;66.87
68746;SHT31;55731;45.456;11.064;2022-11-20T07:53:58;9.65;66.62
68746;SHT31;55731;45.456;11.064;2022-11-20T07:56:36;9.75;66.54
68746;SHT31;55731;45.456;11.064;2022-11-20T07:59:12;9.82;66.39
68746;SHT31;55731;45.456;11.064;2022-11-20T08:01:49;9.93;66.31
68746;SHT31;55731;45.456;11.064;2022-11-20T08:04:24;10.03;66.17
68746;SHT31;55731;45.456;11.064;2022-11-20T08:07:00;10.14;66.27
68746;SHT31;55731;45.456;11.064;2022-11-20T08:09:38;10.25;66.54
68746;SHT31;55731;45.456;11.064;2022-11-20T08:12:17;10.34;66.74
68746;SHT31;55731;45.456;11.064;2022-11-20T08:15:11;10.49;66.80
68746;SHT31;55731;45.456;11.064;2022-11-20T08:17:49;10.59;66.60
68746;SHT31;55731;45.456;11.064;2022-11-20T08:20:50;10.73;66.22
68746;SHT31;55731;45.456;11.064;2022-11-20T08:23:26;10.83;66.38
68746;SHT31;55731;45.456;11.064;2022-11-20T08:26:03;10.94;66.24
68746;SHT31;55731;45.456;11.064;2022-11-20T08:28:41;11.05;66.08
68746;SHT31;55731;45.456;11.064;2022-11-20T08:31:18;11.13;65.51
68746;SHT31;55731;45.456;11.064;2022-11-20T08:34:04;11.21;64.65
68746;SHT31;55731;45.456;11.064;2022-11-20T08:36:46;11.30;64.05
68746;SHT31;55731;45.456;11.064;2022-11-20T08:39:24;11.37;64.49
68746;SHT31;55731;45.456;11.064;2022-11-20T08:42:00;11.43;64.93
68746;SHT31;55731;45.456;11.064;2022-11-20T08:44:39;11.50;64.94
68746;SHT31;55731;45.456;11.064;2022-11-20T08:47:15;11.54;64.76
68746;SHT31;55731;45.456;11.064;2022-11-20T08:49:52;11.62;65.08
68746;SHT31;55731;45.456;11.064;2022-11-20T08:52:29;11.68;65.26
68746;SHT31;55731;45.456;11.064;2022-11-20T08:55:08;11.70;65.52
68746;SHT31;55731;45.456;11.064;2022-11-20T08:57:45;11.69;65.77
68746;SHT31;55731;45.456;11.064;2022-11-20T09:00:23;11.70;65.13
68746;SHT31;55731;45.456;11.064;2022-11-20T09:02:59;11.74;64.85
68746;SHT31;55731;45.456;11.064;2022-11-20T09:05:36;11.79;64.10
68746;SHT31;55731;45.456;11.064;2022-11-20T09:08:13;11.84;63.36
68746;SHT31;55731;45.456;11.064;2022-11-20T09:10:52;11.90;63.07
68746;SHT31;55731;45.456;11.064;2022-11-20T09:13:29;11.98;62.65
68746;SHT31;55731;45.456;11.064;2022-11-20T09:16:08;12.07;62.26
68746;SHT31;55731;45.456;11.064;2022-11-20T09:18:44;12.19;61.74
68746;SHT31;55731;45.456;11.064;2022-11-20T09:21:43;12.27;61.76
68746;SHT31;55731;45.456;11.064;2022-11-20T09:24:27;12.38;61.49
68746;SHT31;55731;45.456;11.064;2022-11-20T09:27:04;12.50;61.36
68746;SHT31;55731;45.456;11.064;2022-11-20T09:29:40;12.62;61.08
68746;SHT31;55731;45.456;11.064;2022-11-20T09:32:17;12.73;60.55
68746;SHT31;55731;45.456;11.064;2022-11-20T09:34:53;12.81;60.31
68746;SHT31;55731;45.456;11.064;2022-11-20T09:37:30;12.91;60.24
68746;SHT31;55731;45.456;11.064;2022-11-20T09:40:09;13.00;59.82
68746;SHT31;55731;45.456;11.064;2022-11-20T09:42:57;13.08;59.04
68746;SHT31;55731;45.456;11.064;2022-11-20T09:45:56;13.16;58.92
68746;SHT31;55731;45.456;11.064;2022-11-20T09:48:45;13.27;57.61
68746;SHT31;55731;45.456;11.064;2022-11-20T09:51:41;13.36;54.22
68746;SHT31;55731;45.456;11.064;2022-11-20T09:54:29;13.42;52.19
68746;SHT31;55731;45.456;11.064;2022-11-20T09:57:10;13.50;51.14
68746;SHT31;55731;45.456;11.064;2022-11-20T09:59:54;13.57;51.10
68746;SHT31;55731;45.456;11.064;2022-11-20T10:02:42;13.62;50.69
68746;SHT31;55731;45.456;11.064;2022-11-20T10:05:27;13.69;50.38
68746;SHT31;55731;45.456;11.064;2022-11-20T10:08:12;13.74;50.59
68746;SHT31;55731;45.456;11.064;2022-11-20T10:10:59;13.81;50.77
68746;SHT31;55731;45.456;11.064;2022-11-20T10:13:51;13.90;50.64
68746;SHT31;55731;45.456;11.064;2022-11-20T10:16:46;13.99;50.39
68746;SHT31;55731;45.456;11.064;2022-11-20T10:22:49;14.10;50.39
68746;SHT31;55731;45.456;11.064;2022-11-20T10:25:55;14.15;50.55
68746;SHT31;55731;45.456;11.064;2022-11-20T10:28:51;14.20;50.59
68746;SHT31;55731;45.456;11.064;2022-11-20T10:31:41;14.25;51.58
68746;SHT31;55731;45.456;11.064;2022-11-20T10:34:23;14.31;51.69
68746;SHT31;55731;45.456;11.064;2022-11-20T10:37:11;14.36;51.79
68746;SHT31;55731;45.456;11.064;2022-11-20T10:39:55;14.41;51.84
68746;SHT31;55731;45.456;11.064;2022-11-20T10:42:46;14.43;51.75
68746;SHT31;55731;45.456;11.064;2022-11-20T10:45:36;14.46;52.13
68746;SHT31;55731;45.456;11.064;2022-11-20T10:48:21;14.50;52.27
68746;SHT31;55731;45.456;11.064;2022-11-20T10:51:03;14.56;52.26
68746;SHT31;55731;45.456;11.064;2022-11-20T10:53:58;14.61;52.22
68746;SHT31;55731;45.456;11.064;2022-11-20T10:56:53;14.66;52.17
68746;SHT31;55731;45.456;11.064;2022-11-20T11:02:48;14.73;52.23
68746;SHT31;55731;45.456;11.064;2022-11-20T11:05:36;14.77;52.33
68746;SHT31;55731;45.456;11.064;2022-11-20T11:08:18;14.80;52.75
68746;SHT31;55731;45.456;11.064;2022-11-20T11:10:59;14.88;52.77
68746;SHT31;55731;45.456;11.064;2022-11-20T11:13:49;14.96;52.46
68746;SHT31;55731;45.456;11.064;2022-11-20T11:16:35;15.01;52.32
68746;SHT31;55731;45.456;11.064;2022-11-20T11:19:23;15.07;51.97
68746;SHT31;55731;45.456;11.064;2022-11-20T11:22:16;15.09;52.02
68746;SHT31;55731;45.456;11.064;2022-11-20T11:24:54;15.14;51.87
68746;SHT31;55731;45.456;11.064;2022-11-20T11:27:32;15.17;51.59
68746;SHT31;55731;45.456;11.064;2022-11-20T11:30:19;15.20;51.78
68746;SHT31;55731;45.456;11.064;2022-11-20T11:33:08;15.24;51.55
68746;SHT31;55731;45.456;11.064;2022-11-20T11:35:50;15.25;51.45
68746;SHT31;55731;45.456;11.064;2022-11-20T11:38:30;15.28;51.56
68746;SHT31;55731;45.456;11.064;2022-11-20T11:41:12;15.31;51.73
68746;SHT31;55731;45.456;11.064;2022-11-20T11:43:55;15.35;51.74
68746;SHT31;55731;45.456;11.064;2022-11-20T11:47:15;15.39;51.72
68746;SHT31;55731;45.456;11.064;2022-11-20T11:50:07;15.42;51.58
68746;SHT31;55731;45.456;11.064;2022-11-20T11:52:57;15.44;51.29
68746;SHT31;55731;45.456;11.064;2022-11-20T11:55:49;15.47;51.26
68746;SHT31;55731;45.456;11.064;2022-11-20T11:58:38;15.47;51.01
68746;SHT31;55731;45.456;11.064;2022-11-20T12:01:22;15.49;51.66
68746;SHT31;55731;45.456;11.064;2022-11-20T12:04:09;15.51;51.98
68746;SHT31;55731;45.456;11.064;2022-11-20T12:06:58;15.55;51.61
68746;SHT31;55731;45.456;11.064;2022-11-20T12:10:08;15.52;51.71
68746;SHT31;55731;45.456;11.064;2022-11-20T12:12:54;15.51;52.11
68746;SHT31;55731;45.456;11.064;2022-11-20T12:15:39;15.52;52.01
68746;SHT31;55731;45.456;11.064;2022-11-20T12:18:22;15.54;51.97
68746;SHT31;55731;45.456;11.064;2022-11-20T12:21:03;15.56;52.71
68746;SHT31;55731;45.456;11.064;2022-11-20T12:24:03;15.56;53.21
68746;SHT31;55731;45.456;11.064;2022-11-20T12:27:05;15.56;53.89
68746;SHT31;55731;45.456;11.064;2022-11-20T12:30:14;15.56;54.27
68746;SHT31;55731;45.456;11.064;2022-11-20T12:32:57;15.57;54.74
68746;SHT31;55731;45.456;11.064;2022-11-20T12:36:11;15.56;54.92
68746;SHT31;55731;45.456;11.064;2022-11-20T12:45:31;15.52;56.20
68746;SHT31;55731;45.456;11.064;2022-11-20T12:48:33;15.53;56.43
68746;SHT31;55731;45.456;11.064;2022-11-20T12:51:33;15.56;56.34
68746;SHT31;55731;45.456;11.064;2022-11-20T12:57:43;15.65;56.23
68746;SHT31;55731;45.456;11.064;2022-11-20T13:00:24;15.65;56.36
68746;SHT31;55731;45.456;11.064;2022-11-20T13:06:14;15.57;56.48
68746;SHT31;55731;45.456;11.064;2022-11-20T13:08:54;15.53;56.58
68746;SHT31;55731;45.456;11.064;2022-11-20T13:11:34;15.49;56.80
68746;SHT31;55731;45.456;11.064;2022-11-20T13:14:19;15.48;56.73
68746;SHT31;55731;45.456;11.064;2022-11-20T13:17:09;15.48;56.89
68746;SHT31;55731;45.456;11.064;2022-11-20T13:19:56;15.50;56.85
68746;SHT31;55731;45.456;11.064;2022-11-20T13:22:44;15.51;56.52
68746;SHT31;55731;45.456;11.064;2022-11-20T13:25:24;15.46;55.91
68746;SHT31;55731;45.456;11.064;2022-11-20T13:28:04;15.42;56.09
68746;SHT31;55731;45.456;11.064;2022-11-20T13:31:00;15.41;55.54
68746;SHT31;55731;45.456;11.064;2022-11-20T13:33:43;15.41;55.43
68746;SHT31;55731;45.456;11.064;2022-11-20T13:36:27;15.38;55.43
68746;SHT31;55731;45.456;11.064;2022-11-20T13:39:05;15.35;55.45
68746;SHT31;55731;45.456;11.064;2022-11-20T13:41:53;15.35;55.34
68746;SHT31;55731;45.456;11.064;2022-11-20T13:44:33;15.32;55.05
68746;SHT31;55731;45.456;11.064;2022-11-20T13:47:20;15.29;55.27
68746;SHT31;55731;45.456;11.064;2022-11-20T13:49:57;15.26;55.56
68746;SHT31;55731;45.456;11.064;2022-11-20T13:52:42;15.27;55.81
68746;SHT31;55731;45.456;11.064;2022-11-20T13:55:37;15.25;55.74
68746;SHT31;55731;45.456;11.064;2022-11-20T13:58:23;15.21;55.60
68746;SHT31;55731;45.456;11.064;2022-11-20T14:01:23;15.16;55.55
68746;SHT31;55731;45.456;11.064;2022-11-20T14:04:07;15.13;55.14
68746;SHT31;55731;45.456;11.064;2022-11-20T14:06:57;15.09;54.86
68746;SHT31;55731;45.456;11.064;2022-11-20T14:09:37;15.09;54.62
68746;SHT31;55731;45.456;11.064;2022-11-20T14:12:27;15.05;54.44
68746;SHT31;55731;45.456;11.064;2022-11-20T14:18:14;15.01;54.17
68746;SHT31;55731;45.456;11.064;2022-11-20T14:20:59;14.99;54.30
68746;SHT31;55731;45.456;11.064;2022-11-20T14:23:39;14.98;54.18
68746;SHT31;55731;45.456;11.064;2022-11-20T14:26:17;14.97;54.01
68746;SHT31;55731;45.456;11.064;2022-11-20T14:28:54;14.94;54.00
68746;SHT31;55731;45.456;11.064;2022-11-20T14:31:31;14.91;53.87
68746;SHT31;55731;45.456;11.064;2022-11-20T14:34:12;14.88;53.67
68746;SHT31;55731;45.456;11.064;2022-11-20T14:36:53;14.84;53.88
68746;SHT31;55731;45.456;11.064;2022-11-20T14:39:33;14.82;53.98
68746;SHT31;55731;45.456;11.064;2022-11-20T14:42:16;14.77;53.77
68746;SHT31;55731;45.456;11.064;2022-11-20T14:44:55;14.70;53.73
68746;SHT31;55731;45.456;11.064;2022-11-20T14:47:32;14.63;53.85
68746;SHT31;55731;45.456;11.064;2022-11-20T14:50:12;14.57;53.96
68746;SHT31;55731;45.456;11.064;2022-11-20T14:52:55;14.51;53.99
68746;SHT31;55731;45.456;11.064;2022-11-20T14:55:33;14.46;54.15
68746;SHT31;55731;45.456;11.064;2022-11-20T14:58:21;14.40;54.16
68746;SHT31;55731;45.456;11.064;2022-11-20T15:01:00;14.32;54.39
68746;SHT31;55731;45.456;11.064;2022-11-20T15:03:36;14.27;54.71
68746;SHT31;55731;45.456;11.064;2022-11-20T15:06:14;14.22;54.99
68746;SHT31;55731;45.456;11.064;2022-11-20T15:09:01;14.16;55.33
68746;SHT31;55731;45.456;11.064;2022-11-20T15:11:52;14.09;55.64
68746;SHT31;55731;45.456;11.064;2022-11-20T15:14:30;14.01;56.06
68746;SHT31;55731;45.456;11.064;2022-11-20T15:17:10;13.94;56.20
68746;SHT31;55731;45.456;11.064;2022-11-20T15:19:48;13.87;56.40
68746;SHT31;55731;45.456;11.064;2022-11-20T15:22:26;13.81;56.58
68746;SHT31;55731;45.456;11.064;2022-11-20T15:25:04;13.74;56.83
68746;SHT31;55731;45.456;11.064;2022-11-20T15:27:48;13.67;57.07
68746;SHT31;55731;45.456;11.064;2022-11-20T15:30:29;13.61;57.26
68746;SHT31;55731;45.456;11.064;2022-11-20T15:33:07;13.55;57.43
68746;SHT31;55731;45.456;11.064;2022-11-20T15:35:43;13.50;57.71
68746;SHT31;55731;45.456;11.064;2022-11-20T15:38:20;13.44;57.89
68746;SHT31;55731;45.456;11.064;2022-11-20T15:40:56;13.38;58.07
68746;SHT31;55731;45.456;11.064;2022-11-20T15:43:33;13.33;58.51
68746;SHT31;55731;45.456;11.064;2022-11-20T15:46:11;13.26;58.60
68746;SHT31;55731;45.456;11.064;2022-11-20T15:48:51;13.16;58.90
68746;SHT31;55731;45.456;11.064;2022-11-20T15:51:31;13.07;59.27
68746;SHT31;55731;45.456;11.064;2022-11-20T15:54:12;13.00;59.60
68746;SHT31;55731;45.456;11.064;2022-11-20T15:56:51;12.93;60.26
68746;SHT31;55731;45.456;11.064;2022-11-20T15:59:29;12.81;60.76
68746;SHT31;55731;45.456;11.064;2022-11-20T16:02:11;12.69;61.32
68746;SHT31;55731;45.456;11.064;2022-11-20T16:04:47;12.58;61.86
68746;SHT31;55731;45.456;11.064;2022-11-20T16:07:24;12.46;62.36
68746;SHT31;55731;45.456;11.064;2022-11-20T16:10:01;12.34;62.86
68746;SHT31;55731;45.456;11.064;2022-11-20T16:12:42;12.22;63.28
68746;SHT31;55731;45.456;11.064;2022-11-20T16:15:35;12.05;63.79
68746;SHT31;55731;45.456;11.064;2022-11-20T16:18:18;11.93;64.15
68746;SHT31;55731;45.456;11.064;2022-11-20T16:20:55;11.87;64.43
68746;SHT31;55731;45.456;11.064;2022-11-20T16:23:32;11.87;64.50
68746;SHT31;55731;45.456;11.064;2022-11-20T16:26:13;11.85;64.60
68746;SHT31;55731;45.456;11.064;2022-11-20T16:28:51;11.81;64.73
68746;SHT31;55731;45.456;11.064;2022-11-20T16:31:27;11.74;64.88
68746;SHT31;55731;45.456;11.064;2022-11-20T16:34:04;11.69;65.03
68746;SHT31;55731;45.456;11.064;2022-11-20T16:36:41;11.66;65.10
68746;SHT31;55731;45.456;11.064;2022-11-20T16:39:18;11.61;65.76
68746;SHT31;55731;45.456;11.064;2022-11-20T16:41:55;11.53;65.46
68746;SHT31;55731;45.456;11.064;2022-11-20T16:44:34;11.45;65.43
68746;SHT31;55731;45.456;11.064;2022-11-20T16:47:11;11.37;65.58
68746;SHT31;55731;45.456;11.064;2022-11-20T16:49:49;11.26;65.78
68746;SHT31;55731;45.456;11.064;2022-11-20T16:52:26;11.15;66.02
68746;SHT31;55731;45.456;11.064;2022-11-20T16:55:03;11.07;66.17
68746;SHT31;55731;45.456;11.064;2022-11-20T16:57:41;11.03;66.35
68746;SHT31;55731;45.456;11.064;2022-11-20T17:00:18;10.98;66.41
68746;SHT31;55731;45.456;11.064;2022-11-20T17:02:55;10.99;66.43
68746;SHT31;55731;45.456;11.064;2022-11-20T17:05:33;11.01;66.39
68746;SHT31;55731;45.456;11.064;2022-11-20T17:08:10;11.03;66.29
68746;SHT31;55731;45.456;11.064;2022-11-20T17:10:48;11.01;66.35
68746;SHT31;55731;45.456;11.064;2022-11-20T17:13:24;11.02;66.29
68746;SHT31;55731;45.456;11.064;2022-11-20T17:16:08;11.00;66.29